createdAt,value
2017-07-31T00:02:16.714Z,16.68
2017-07-31T00:04:44.559Z,16.73
2017-07-31T00:07:12.384Z,16.74
2017-07-31T00:09:40.201Z,16.62
2017-07-31T00:12:08.015Z,16.49
2017-07-31T00:14:35.832Z,16.43
2017-07-31T00:17:03.607Z,16.40
2017-07-31T00:19:31.455Z,16.41
2017-07-31T00:21:59.227Z,16.49
2017-07-31T00:24:27.013Z,16.55
2017-07-31T00:26:54.858Z,16.58
2017-07-31T00:29:22.646Z,16.60
2017-07-31T00:31:50.455Z,16.56
2017-07-31T00:34:18.204Z,16.47
2017-07-31T00:36:46.065Z,16.43
2017-07-31T00:39:13.853Z,16.33
2017-07-31T00:41:41.624Z,16.28
2017-07-31T00:44:09.460Z,16.25
2017-07-31T00:46:37.225Z,16.25
2017-07-31T00:49:05.036Z,16.18
2017-07-31T00:51:32.829Z,16.13
2017-07-31T00:54:00.700Z,16.11
2017-07-31T00:56:28.493Z,16.06
2017-07-31T00:58:56.254Z,16.08
2017-07-31T01:01:24.059Z,16.08
2017-07-31T01:03:51.824Z,16.04
2017-07-31T01:06:19.645Z,15.94
2017-07-31T01:08:47.405Z,15.85
2017-07-31T01:11:15.225Z,15.77
2017-07-31T01:13:43.004Z,15.68
2017-07-31T01:16:10.779Z,15.63
2017-07-31T01:18:38.594Z,15.61
2017-07-31T01:21:06.372Z,15.59
2017-07-31T01:23:34.181Z,15.55
2017-07-31T01:26:01.967Z,15.52
2017-07-31T01:28:29.769Z,15.49
2017-07-31T01:30:57.568Z,15.44
2017-07-31T01:33:25.385Z,15.39
2017-07-31T01:35:53.174Z,15.41
2017-07-31T01:38:21.026Z,15.47
2017-07-31T01:40:48.862Z,15.50
2017-07-31T01:43:16.664Z,15.56
2017-07-31T01:45:44.475Z,15.59
2017-07-31T01:48:12.264Z,15.59
2017-07-31T01:50:40.292Z,15.58
2017-07-31T01:53:08.069Z,15.54
2017-07-31T01:55:35.933Z,15.46
2017-07-31T01:58:03.738Z,15.41
2017-07-31T02:00:31.522Z,15.42
2017-07-31T02:02:59.364Z,15.38
2017-07-31T02:05:27.138Z,15.32
2017-07-31T02:07:54.983Z,15.30
2017-07-31T02:10:22.759Z,15.29
2017-07-31T02:12:50.575Z,15.29
2017-07-31T02:15:18.355Z,15.18
2017-07-31T02:17:46.119Z,15.13
2017-07-31T02:20:13.938Z,15.08
2017-07-31T02:22:41.727Z,15.05
2017-07-31T02:25:09.536Z,15.06
2017-07-31T02:27:37.328Z,15.13
2017-07-31T02:30:05.152Z,15.19
2017-07-31T02:32:32.939Z,15.21
2017-07-31T02:35:00.714Z,15.17
2017-07-31T02:37:28.580Z,15.13
2017-07-31T02:39:56.380Z,15.10
2017-07-31T02:42:24.174Z,15.08
2017-07-31T02:44:51.936Z,15.00
2017-07-31T02:47:19.739Z,14.96
2017-07-31T02:49:47.504Z,14.99
2017-07-31T02:52:15.304Z,14.99
2017-07-31T02:54:43.124Z,15.02
2017-07-31T02:57:10.907Z,15.01
2017-07-31T02:59:38.720Z,14.98
2017-07-31T03:02:06.487Z,15.01
2017-07-31T03:04:34.289Z,15.05
2017-07-31T03:07:02.058Z,15.07
2017-07-31T03:09:29.745Z,15.08
2017-07-31T03:11:57.393Z,15.09
2017-07-31T03:14:25.037Z,15.08
2017-07-31T03:16:52.724Z,15.08
2017-07-31T03:19:20.375Z,15.10
2017-07-31T03:21:48.059Z,15.12
2017-07-31T03:24:15.694Z,15.19
2017-07-31T03:26:43.447Z,15.25
2017-07-31T03:29:11.102Z,15.30
2017-07-31T03:31:38.758Z,15.39
2017-07-31T03:34:06.442Z,15.45
2017-07-31T03:36:34.097Z,15.52
2017-07-31T03:39:01.850Z,15.52
2017-07-31T03:41:29.489Z,15.45
2017-07-31T03:43:57.178Z,15.40
2017-07-31T03:46:24.802Z,15.38
2017-07-31T03:48:52.523Z,15.40
2017-07-31T03:51:20.176Z,15.44
2017-07-31T03:53:47.828Z,15.51
2017-07-31T03:56:15.512Z,15.58
2017-07-31T03:58:43.159Z,15.65
2017-07-31T04:01:10.842Z,15.71
2017-07-31T04:03:38.490Z,15.76
2017-07-31T04:06:06.186Z,15.78
2017-07-31T04:08:33.830Z,15.79
2017-07-31T04:11:01.514Z,15.80
2017-07-31T04:13:29.159Z,15.88
2017-07-31T04:15:56.800Z,15.93
2017-07-31T04:18:24.508Z,15.97
2017-07-31T04:20:52.144Z,16.00
2017-07-31T04:23:19.834Z,16.09
2017-07-31T04:25:47.473Z,16.21
2017-07-31T04:28:15.183Z,16.31
2017-07-31T04:30:42.822Z,16.42
2017-07-31T04:33:10.530Z,16.54
2017-07-31T04:35:38.207Z,16.62
2017-07-31T04:38:05.901Z,16.69
2017-07-31T04:40:33.606Z,16.72
2017-07-31T04:43:01.253Z,16.73
2017-07-31T04:45:28.973Z,16.75
2017-07-31T04:47:56.604Z,16.79
2017-07-31T04:50:24.291Z,16.79
2017-07-31T04:52:51.934Z,16.81
2017-07-31T04:55:19.636Z,16.80
2017-07-31T04:57:47.289Z,16.82
2017-07-31T05:00:14.992Z,16.82
2017-07-31T05:02:42.632Z,16.80
2017-07-31T05:05:10.290Z,16.79
2017-07-31T05:07:37.983Z,16.82
2017-07-31T05:10:05.658Z,16.86
2017-07-31T05:12:33.342Z,16.92
2017-07-31T05:15:00.975Z,17.02
2017-07-31T05:17:28.694Z,17.09
2017-07-31T05:19:56.345Z,17.13
2017-07-31T05:22:24.070Z,17.17
2017-07-31T05:24:51.724Z,17.24
2017-07-31T05:27:19.385Z,17.34
2017-07-31T05:29:47.080Z,17.44
2017-07-31T05:32:14.722Z,17.52
2017-07-31T05:34:42.419Z,17.61
2017-07-31T05:37:10.111Z,17.70
2017-07-31T05:39:37.807Z,17.73
2017-07-31T05:42:05.442Z,17.76
2017-07-31T05:44:33.132Z,17.76
2017-07-31T05:47:00.803Z,17.79
2017-07-31T05:49:28.461Z,17.87
2017-07-31T05:51:56.172Z,18.03
2017-07-31T05:54:23.810Z,18.15
2017-07-31T05:56:51.487Z,18.33
2017-07-31T05:59:19.160Z,18.31
2017-07-31T06:01:46.879Z,18.15
2017-07-31T06:04:14.557Z,17.94
2017-07-31T06:06:42.275Z,17.84
2017-07-31T06:09:09.939Z,17.85
2017-07-31T06:11:37.593Z,17.85
2017-07-31T06:14:05.316Z,17.81
2017-07-31T06:16:32.974Z,17.74
2017-07-31T06:19:00.703Z,17.73
2017-07-31T06:21:28.346Z,17.78
2017-07-31T06:23:55.974Z,17.98
2017-07-31T06:26:23.620Z,18.15
2017-07-31T06:28:51.310Z,18.34
2017-07-31T06:31:18.961Z,18.62
2017-07-31T06:33:46.669Z,18.84
2017-07-31T06:36:14.330Z,18.90
2017-07-31T06:38:42.039Z,18.88
2017-07-31T06:41:09.755Z,18.93
2017-07-31T06:43:37.417Z,19.02
2017-07-31T06:46:05.121Z,19.18
2017-07-31T06:48:32.779Z,19.28
2017-07-31T06:51:00.490Z,19.46
2017-07-31T06:53:28.154Z,19.68
2017-07-31T06:55:55.910Z,19.91
2017-07-31T06:58:23.566Z,20.10
2017-07-31T07:00:51.206Z,20.08
2017-07-31T07:03:18.926Z,20.13
2017-07-31T07:05:46.579Z,20.23
2017-07-31T07:08:14.279Z,20.45
2017-07-31T07:10:41.941Z,20.71
2017-07-31T07:13:09.655Z,20.94
2017-07-31T07:15:37.314Z,21.18
2017-07-31T07:18:05.036Z,21.41
2017-07-31T07:20:32.687Z,21.59
2017-07-31T07:23:00.452Z,21.78
2017-07-31T07:25:28.106Z,21.89
2017-07-31T07:27:55.775Z,21.99
2017-07-31T07:30:23.501Z,22.15
2017-07-31T07:32:51.165Z,22.28
2017-07-31T07:35:18.897Z,22.34
2017-07-31T07:37:46.593Z,22.48
2017-07-31T07:40:14.326Z,22.67
2017-07-31T07:42:41.981Z,22.80
2017-07-31T07:45:09.758Z,22.81
2017-07-31T07:47:37.449Z,22.93
2017-07-31T07:50:05.089Z,23.09
2017-07-31T07:52:32.805Z,23.19
2017-07-31T07:55:00.449Z,23.28
2017-07-31T07:57:28.208Z,23.32
2017-07-31T07:59:55.873Z,23.42
2017-07-31T08:02:23.595Z,23.58
2017-07-31T08:04:51.263Z,23.68
2017-07-31T08:07:18.960Z,23.71
2017-07-31T08:09:46.617Z,23.88
2017-07-31T08:12:14.282Z,23.91
2017-07-31T08:14:41.965Z,23.88
2017-07-31T08:17:09.647Z,24.04
2017-07-31T08:19:37.341Z,24.21
2017-07-31T08:22:05.003Z,24.38
2017-07-31T08:24:32.725Z,24.50
2017-07-31T08:27:00.401Z,24.54
2017-07-31T08:29:28.112Z,24.67
2017-07-31T08:31:55.766Z,24.59
2017-07-31T08:34:23.426Z,24.58
2017-07-31T08:36:51.127Z,24.58
2017-07-31T08:39:18.816Z,24.54
2017-07-31T08:41:46.506Z,24.70
2017-07-31T08:44:14.159Z,24.88
2017-07-31T08:46:41.878Z,25.09
2017-07-31T08:49:09.548Z,25.25
2017-07-31T08:51:37.251Z,25.26
2017-07-31T08:54:04.909Z,25.23
2017-07-31T08:56:32.580Z,25.14
2017-07-31T08:59:00.285Z,25.17
2017-07-31T09:01:27.952Z,25.15
2017-07-31T09:03:55.651Z,25.18
2017-07-31T09:06:23.301Z,25.32
2017-07-31T09:08:51.026Z,25.48
2017-07-31T09:11:18.704Z,25.48
2017-07-31T09:13:46.487Z,25.39
2017-07-31T09:16:14.126Z,25.21
2017-07-31T09:18:41.776Z,25.34
2017-07-31T09:21:09.481Z,25.62
2017-07-31T09:23:37.139Z,25.43
2017-07-31T09:26:04.897Z,25.47
2017-07-31T09:28:32.587Z,25.52
2017-07-31T09:31:00.317Z,25.67
2017-07-31T09:33:27.954Z,25.65
2017-07-31T09:35:55.686Z,25.81
2017-07-31T09:38:23.394Z,25.99
2017-07-31T09:40:51.100Z,26.01
2017-07-31T09:43:18.742Z,25.97
2017-07-31T09:45:46.415Z,25.82
2017-07-31T09:48:14.118Z,25.67
2017-07-31T09:50:41.764Z,25.89
2017-07-31T09:53:09.460Z,26.07
2017-07-31T09:55:37.122Z,26.18
2017-07-31T09:58:04.810Z,26.35
2017-07-31T10:00:32.457Z,26.46
2017-07-31T10:03:00.165Z,26.54
2017-07-31T10:05:27.796Z,26.30
2017-07-31T10:07:55.448Z,26.33
2017-07-31T10:10:23.174Z,26.50
2017-07-31T10:12:50.831Z,26.37
2017-07-31T10:15:18.544Z,26.37
2017-07-31T10:17:46.230Z,26.34
2017-07-31T10:20:13.900Z,26.35
2017-07-31T10:22:41.544Z,26.54
2017-07-31T10:25:09.276Z,26.70
2017-07-31T10:27:36.940Z,26.91
2017-07-31T10:30:04.592Z,26.94
2017-07-31T10:32:32.328Z,26.98
2017-07-31T10:34:59.963Z,26.92
2017-07-31T10:37:27.690Z,26.92
2017-07-31T10:39:55.343Z,27.04
2017-07-31T10:42:23.027Z,27.05
2017-07-31T10:44:50.684Z,26.98
2017-07-31T10:47:18.399Z,27.08
2017-07-31T10:49:46.055Z,26.96
2017-07-31T10:52:13.704Z,26.95
2017-07-31T10:54:41.422Z,26.45
2017-07-31T10:57:09.073Z,26.54
2017-07-31T10:59:36.764Z,26.78
2017-07-31T11:02:04.445Z,27.13
2017-07-31T11:04:32.210Z,27.24
2017-07-31T11:06:59.853Z,26.95
2017-07-31T11:09:27.562Z,26.63
2017-07-31T11:11:55.226Z,26.57
2017-07-31T11:14:22.879Z,26.48
2017-07-31T11:16:50.571Z,26.22
2017-07-31T11:19:18.242Z,25.85
2017-07-31T11:21:45.927Z,26.06
2017-07-31T11:24:13.588Z,26.29
2017-07-31T11:26:41.270Z,26.37
2017-07-31T11:29:08.963Z,26.38
2017-07-31T11:31:36.689Z,26.66
2017-07-31T11:34:04.325Z,26.57
2017-07-31T11:36:31.987Z,26.67
2017-07-31T11:38:59.735Z,27.12
2017-07-31T11:41:27.393Z,27.49
2017-07-31T11:43:55.126Z,27.46
2017-07-31T11:46:22.795Z,26.72
2017-07-31T11:48:50.490Z,26.40
2017-07-31T11:51:18.202Z,26.00
2017-07-31T11:53:45.922Z,25.94
2017-07-31T11:56:13.577Z,26.07
2017-07-31T11:58:41.239Z,26.19
2017-07-31T12:01:08.937Z,26.32
2017-07-31T12:03:36.585Z,26.19
2017-07-31T12:06:04.323Z,26.35
2017-07-31T12:08:31.980Z,26.80
2017-07-31T12:10:59.701Z,27.23
2017-07-31T12:13:27.366Z,27.56
2017-07-31T12:15:55.077Z,27.79
2017-07-31T12:18:22.719Z,28.02
2017-07-31T12:20:50.390Z,28.14
2017-07-31T12:23:18.115Z,27.77
2017-07-31T12:25:45.768Z,27.20
2017-07-31T12:28:13.505Z,26.85
2017-07-31T12:30:41.143Z,26.54
2017-07-31T12:33:08.846Z,26.83
2017-07-31T12:35:36.497Z,27.36
2017-07-31T12:38:04.276Z,27.98
2017-07-31T12:40:31.926Z,28.24
2017-07-31T12:42:59.590Z,28.16
2017-07-31T12:45:27.294Z,28.27
2017-07-31T12:47:55.012Z,28.46
2017-07-31T12:50:22.736Z,28.09
2017-07-31T12:52:50.417Z,28.08
2017-07-31T12:55:18.167Z,27.76
2017-07-31T12:57:45.824Z,27.54
2017-07-31T13:00:13.541Z,27.64
2017-07-31T13:02:41.217Z,28.10
2017-07-31T13:05:08.875Z,28.12
2017-07-31T13:07:36.597Z,27.67
2017-07-31T13:10:04.252Z,27.59
2017-07-31T13:12:31.988Z,27.90
2017-07-31T13:14:59.680Z,28.14
2017-07-31T13:17:27.398Z,27.97
2017-07-31T13:19:55.068Z,27.57
2017-07-31T13:22:22.809Z,27.54
2017-07-31T13:24:50.474Z,27.78
2017-07-31T13:27:18.159Z,28.09
2017-07-31T13:29:45.877Z,28.44
2017-07-31T13:32:13.573Z,28.41
2017-07-31T13:34:41.295Z,28.05
2017-07-31T13:37:09.026Z,27.67
2017-07-31T13:39:36.771Z,27.26
2017-07-31T13:42:04.454Z,27.09
2017-07-31T13:44:32.161Z,27.06
2017-07-31T13:46:59.851Z,27.01
2017-07-31T13:49:27.493Z,27.41
2017-07-31T13:51:55.211Z,27.83
2017-07-31T13:54:22.870Z,28.07
2017-07-31T13:56:50.560Z,28.23
2017-07-31T13:59:18.203Z,28.19
2017-07-31T14:01:45.903Z,28.11
2017-07-31T14:04:13.573Z,27.92
2017-07-31T14:06:41.316Z,28.08
2017-07-31T14:09:08.989Z,28.33
2017-07-31T14:11:36.628Z,28.39
2017-07-31T14:14:04.322Z,28.30
2017-07-31T14:16:31.983Z,28.26
2017-07-31T14:18:59.663Z,27.99
2017-07-31T14:21:27.357Z,27.76
2017-07-31T14:23:54.997Z,27.59
2017-07-31T14:26:22.658Z,27.74
2017-07-31T14:28:50.347Z,27.80
2017-07-31T14:31:17.983Z,27.74
2017-07-31T14:33:45.647Z,28.00
2017-07-31T14:36:13.370Z,28.06
2017-07-31T14:38:41.094Z,28.08
2017-07-31T14:41:08.810Z,28.09
2017-07-31T14:43:36.473Z,28.06
2017-07-31T14:46:04.260Z,28.04
2017-07-31T14:48:31.908Z,27.98
2017-07-31T14:50:59.604Z,27.99
2017-07-31T14:53:27.267Z,28.04
2017-07-31T14:55:54.925Z,28.17
2017-07-31T14:58:22.638Z,28.24
2017-07-31T15:00:50.273Z,28.29
2017-07-31T15:03:17.990Z,28.39
2017-07-31T15:05:45.648Z,28.36
2017-07-31T15:08:13.367Z,28.41
2017-07-31T15:10:41.045Z,28.55
2017-07-31T15:13:08.765Z,28.79
2017-07-31T15:15:36.422Z,28.99
2017-07-31T15:18:04.131Z,29.11
2017-07-31T15:20:31.789Z,28.96
2017-07-31T15:22:59.444Z,28.85
2017-07-31T15:25:27.156Z,28.68
2017-07-31T15:27:54.825Z,28.48
2017-07-31T15:30:22.566Z,28.48
2017-07-31T15:32:50.258Z,28.56
2017-07-31T15:35:17.956Z,28.33
2017-07-31T15:37:45.635Z,28.41
2017-07-31T15:40:13.366Z,28.39
2017-07-31T15:42:41.036Z,28.39
2017-07-31T15:45:08.719Z,28.29
2017-07-31T15:47:36.436Z,28.16
2017-07-31T15:50:04.100Z,28.10
2017-07-31T15:52:31.796Z,28.02
2017-07-31T15:54:59.451Z,27.85
2017-07-31T15:57:27.152Z,27.88
2017-07-31T15:59:54.806Z,27.86
2017-07-31T16:02:22.524Z,27.61
2017-07-31T16:04:50.201Z,27.59
2017-07-31T16:07:17.861Z,27.59
2017-07-31T16:09:45.584Z,27.63
2017-07-31T16:12:13.234Z,27.70
2017-07-31T16:14:40.920Z,27.74
2017-07-31T16:17:08.568Z,27.72
2017-07-31T16:19:36.251Z,27.77
2017-07-31T16:22:03.893Z,27.81
2017-07-31T16:24:31.578Z,27.85
2017-07-31T16:26:59.237Z,27.83
2017-07-31T16:29:26.891Z,27.89
2017-07-31T16:31:54.595Z,27.81
2017-07-31T16:34:22.255Z,27.79
2017-07-31T16:36:49.971Z,27.85
2017-07-31T16:39:17.738Z,27.76
2017-07-31T16:41:45.507Z,27.81
2017-07-31T16:44:13.189Z,27.86
2017-07-31T16:46:40.910Z,27.72
2017-07-31T16:49:09.527Z,27.41
2017-07-31T16:51:37.230Z,27.29
2017-07-31T16:54:04.890Z,27.37
2017-07-31T16:56:32.597Z,27.38
2017-07-31T16:59:00.286Z,27.18
2017-07-31T17:01:27.940Z,26.95
2017-07-31T17:03:55.647Z,26.74
2017-07-31T17:06:23.331Z,26.58
2017-07-31T17:08:51.028Z,26.40
2017-07-31T17:11:18.685Z,26.15
2017-07-31T17:13:46.389Z,25.85
2017-07-31T17:16:14.048Z,25.60
2017-07-31T17:18:41.778Z,25.41
2017-07-31T17:21:09.460Z,25.23
2017-07-31T17:23:37.110Z,25.10
2017-07-31T17:26:04.840Z,24.99
2017-07-31T17:28:32.494Z,24.94
2017-07-31T17:31:00.206Z,24.94
2017-07-31T17:33:27.900Z,24.95
2017-07-31T17:35:55.610Z,25.11
2017-07-31T17:38:23.315Z,25.31
2017-07-31T17:40:51.055Z,25.55
2017-07-31T17:43:18.726Z,25.73
2017-07-31T17:45:46.365Z,25.86
2017-07-31T17:48:14.082Z,25.92
2017-07-31T17:50:41.746Z,25.92
2017-07-31T17:53:09.455Z,25.90
2017-07-31T17:55:37.171Z,25.73
2017-07-31T17:58:04.871Z,25.53
2017-07-31T18:00:32.504Z,25.58
2017-07-31T18:03:00.156Z,26.06
2017-07-31T18:05:27.845Z,26.94
2017-07-31T18:07:55.497Z,27.32
2017-07-31T18:10:23.217Z,27.03
2017-07-31T18:12:50.903Z,26.71
2017-07-31T18:15:18.587Z,26.70
2017-07-31T18:17:46.231Z,26.66
2017-07-31T18:20:13.946Z,26.00
2017-07-31T18:22:41.598Z,25.37
2017-07-31T18:25:09.258Z,24.89
2017-07-31T18:27:36.966Z,24.55
2017-07-31T18:30:04.643Z,24.24
2017-07-31T18:32:32.358Z,23.82
2017-07-31T18:35:00.035Z,23.58
2017-07-31T18:37:27.764Z,23.59
2017-07-31T18:39:55.436Z,23.64
2017-07-31T18:42:23.151Z,23.62
2017-07-31T18:44:50.827Z,23.46
2017-07-31T18:47:18.478Z,23.21
2017-07-31T18:49:46.181Z,22.96
2017-07-31T18:52:13.831Z,22.74
2017-07-31T18:54:41.513Z,22.66
2017-07-31T18:57:09.151Z,22.52
2017-07-31T18:59:36.848Z,22.34
2017-07-31T19:02:04.507Z,22.08
2017-07-31T19:04:32.231Z,21.91
2017-07-31T19:06:59.915Z,21.80
2017-07-31T19:09:27.552Z,21.68
2017-07-31T19:11:55.270Z,21.59
2017-07-31T19:14:22.921Z,21.45
2017-07-31T19:16:50.640Z,21.35
2017-07-31T19:19:18.304Z,21.29
2017-07-31T19:21:46.012Z,21.24
2017-07-31T19:24:13.672Z,21.16
2017-07-31T19:26:41.399Z,21.10
2017-07-31T19:29:09.066Z,21.06
2017-07-31T19:31:36.723Z,20.98
2017-07-31T19:34:04.439Z,20.97
2017-07-31T19:36:32.112Z,20.96
2017-07-31T19:38:59.879Z,20.96
2017-07-31T19:41:27.533Z,20.94
2017-07-31T19:43:55.262Z,20.94
2017-07-31T19:46:22.942Z,20.95
2017-07-31T19:48:50.648Z,20.92
2017-07-31T19:51:18.310Z,20.83
2017-07-31T19:53:45.983Z,20.76
2017-07-31T19:56:13.718Z,20.74
2017-07-31T19:58:41.396Z,20.75
2017-07-31T20:01:09.120Z,20.73
2017-07-31T20:03:38.063Z,20.72
2017-07-31T20:06:05.903Z,20.71
2017-07-31T20:08:33.559Z,20.68
2017-07-31T20:11:01.189Z,20.63
2017-07-31T20:13:28.859Z,20.60
2017-07-31T20:15:56.532Z,20.54
2017-07-31T20:18:24.296Z,20.47
2017-07-31T20:20:51.883Z,20.49
2017-07-31T20:23:19.597Z,20.47
2017-07-31T20:25:47.302Z,20.44
2017-07-31T20:28:14.934Z,20.38
2017-07-31T20:30:42.591Z,20.31
2017-07-31T20:33:10.356Z,20.25
2017-07-31T20:35:38.026Z,20.18
2017-07-31T20:38:05.640Z,20.13
2017-07-31T20:40:56.274Z,20.08
2017-07-31T20:43:26.994Z,19.99
2017-07-31T20:45:54.635Z,19.98
2017-07-31T20:48:22.244Z,19.97
2017-07-31T20:50:49.877Z,19.96
2017-07-31T20:53:17.515Z,19.94
2017-07-31T20:55:45.420Z,19.96
2017-07-31T20:58:45.796Z,19.94
2017-07-31T21:01:13.421Z,19.92
2017-07-31T21:03:41.017Z,19.93
2017-07-31T21:06:08.644Z,19.95
2017-07-31T21:08:36.236Z,19.93
2017-07-31T21:11:03.888Z,19.92
2017-07-31T21:13:31.471Z,19.88
2017-07-31T21:15:59.071Z,19.85
2017-07-31T21:18:26.737Z,19.82
2017-07-31T21:20:54.308Z,19.79
2017-07-31T21:23:21.928Z,19.76
2017-07-31T21:25:49.536Z,19.75
2017-07-31T21:28:17.182Z,19.70
2017-07-31T21:30:44.764Z,19.59
2017-07-31T21:33:12.346Z,19.52
2017-07-31T21:35:39.988Z,19.48
2017-07-31T21:38:07.569Z,19.42
2017-07-31T21:40:44.294Z,19.27
2017-07-31T21:43:18.299Z,19.12
2017-07-31T21:48:36.446Z,18.87
2017-07-31T21:51:05.917Z,18.73
2017-07-31T21:53:38.878Z,18.62
2017-07-31T21:56:08.027Z,18.56
2017-07-31T21:58:35.740Z,18.54
2017-07-31T22:01:03.418Z,18.55
2017-07-31T22:03:31.067Z,18.51
2017-07-31T22:05:58.643Z,18.43
2017-07-31T22:08:26.331Z,18.34
2017-07-31T22:10:53.992Z,18.29
2017-07-31T22:13:21.641Z,18.22
2017-07-31T22:15:49.233Z,18.16
2017-07-31T22:18:16.970Z,18.13
2017-07-31T22:20:44.633Z,18.12
2017-07-31T22:23:12.338Z,18.10
2017-07-31T22:25:39.899Z,18.08
2017-07-31T22:28:07.641Z,18.02
2017-07-31T22:30:35.226Z,17.98
2017-07-31T22:33:02.877Z,18.04
2017-07-31T22:35:30.567Z,18.14
2017-07-31T22:37:58.260Z,18.25
2017-07-31T22:40:25.973Z,18.32
2017-07-31T22:42:53.637Z,18.36
2017-07-31T22:45:21.354Z,18.37
2017-07-31T22:47:49.013Z,18.38
2017-07-31T22:50:16.728Z,18.37
2017-07-31T22:52:44.401Z,18.36
2017-07-31T22:55:12.116Z,18.34
2017-07-31T22:57:39.775Z,18.33
2017-07-31T23:00:07.464Z,18.31
2017-07-31T23:02:35.193Z,18.30
2017-07-31T23:05:02.871Z,18.28
2017-07-31T23:07:30.571Z,18.24
2017-07-31T23:09:58.161Z,18.18
2017-07-31T23:12:25.844Z,18.08
2017-07-31T23:14:53.529Z,18.01
2017-07-31T23:17:21.226Z,17.96
2017-07-31T23:19:48.879Z,17.92
2017-07-31T23:22:16.587Z,17.87
2017-07-31T23:24:44.161Z,17.84
2017-07-31T23:27:11.732Z,17.77
2017-07-31T23:29:39.347Z,17.71
2017-07-31T23:32:07.036Z,17.68
2017-07-31T23:34:34.720Z,17.65
2017-07-31T23:37:02.371Z,17.54
2017-07-31T23:39:30.100Z,17.46
2017-07-31T23:41:57.748Z,17.52
2017-07-31T23:44:25.456Z,17.60
2017-07-31T23:46:53.117Z,17.68
2017-07-31T23:49:20.862Z,17.76
2017-07-31T23:51:48.503Z,17.83
2017-07-31T23:54:16.150Z,17.88
2017-07-31T23:56:43.834Z,17.91
2017-07-31T23:59:11.508Z,17.87
